Latest Weather Observations for Swanbourne

IDW60801

Issued at 7:35 pm WST Saturday 25 October 2014 (issued every 30 minutes, with the page automatically refreshed every 10 minutes)

About weather observations | Map of weather stations | Latest weather observations for WA | Other Formats
Station Details ID: 009215 Name: SWANBOURNE Lat: -31.96 Lon: 115.76 Height: 40.96 m
Data from the previous 72 hours. | See also: Recent months at Swanbourne
Date/Time
WST
Temp
°C
App
Temp
°C
Dew
Point
Rel
Hum
%
Delta-T
°C
Wind Press
QNH
hPa
Press
MSL
hPa
Rain
since 9 am
mm
Dir
 
Spd
km/h
Gust
km/h
Spd
kts
Gust
kts
25/07:30pm 18.4 15.9 14.1 76 2.5 WSW 20 32 11 17 - - 0.0
25/07:00pm 18.4 16.0 13.7 74 2.7 WSW 19 28 10 15 - - 0.0
25/06:30pm 18.3 15.8 14.0 76 2.5 WSW 20 30 11 16 - - 0.0
25/06:00pm 18.4 16.2 14.5 78 2.3 WSW 19 30 10 16 - - 0.0
25/05:30pm 18.9 17.7 16.0 83 1.7 WSW 17 26 9 14 - - 0.0
25/05:00pm 17.9 16.3 16.6 92 0.8 WSW 20 33 11 18 - - 0.0
25/04:30pm 19.1 16.9 16.0 82 1.8 WNW 22 39 12 21 - - 0.0
25/04:00pm 20.6 18.2 14.3 67 3.7 WNW 20 28 11 15 - - 0.0
25/03:30pm 21.3 19.0 14.7 66 3.9 WNW 20 28 11 15 - - 0.0
25/03:00pm 21.0 18.4 13.9 64 4.1 WNW 20 30 11 16 - - 0.0
25/02:30pm 21.3 18.8 13.5 61 4.5 WNW 19 26 10 14 - - 0.0
25/02:00pm 21.3 18.8 13.5 61 4.5 W 19 26 10 14 - - 0.0
25/01:30pm 22.9 20.7 13.4 55 5.5 W 17 26 9 14 - - 0.0
25/01:00pm 22.0 19.3 12.8 56 5.3 W 19 26 10 14 - - 0.0
25/12:30pm 21.6 19.0 13.2 59 4.8 W 19 28 10 15 - - 0.0
25/12:00pm 21.1 18.1 12.5 58 4.9 W 20 30 11 16 - - 0.0
25/11:30am 20.6 17.9 12.8 61 4.4 W 19 26 10 14 - - 0.0
25/11:00am 18.9 16.0 12.4 66 3.6 W 19 28 10 15 - - 0.0
25/10:30am 21.2 18.4 12.6 58 4.9 W 19 26 10 14 - - 0.0
25/10:00am 20.6 18.2 12.6 60 4.5 W 17 24 9 13 - - 0.0
25/09:30am 19.9 17.8 12.4 62 4.2 WSW 15 24 8 13 - - 0.0
25/09:00am 20.3 17.3 12.0 59 4.6 WSW 19 24 10 13 - - 0.0
25/08:30am 19.7 16.6 11.7 60 4.4 WSW 19 26 10 14 - - 0.0
25/08:00am 19.5 16.5 12.0 62 4.2 WSW 19 26 10 14 - - 0.0
25/07:30am 18.9 16.1 12.6 67 3.5 W 19 28 10 15 - - 0.0
25/07:00am 18.8 16.7 12.3 66 3.6 W 15 22 8 12 - - 0.0
25/06:30am 18.2 16.5 12.4 69 3.2 WSW 13 20 7 11 - - 0.0
25/06:00am 17.6 15.5 12.3 71 2.9 W 15 20 8 11 - - 0.0
25/05:30am 17.6 14.9 12.9 74 2.6 WSW 19 28 10 15 - - 0.0
25/05:00am 18.0 14.9 13.5 75 2.6 WSW 22 32 12 17 - - 0.0
25/04:30am 17.9 15.0 14.0 78 2.2 WSW 22 32 12 17 - - 0.0
25/04:00am 17.1 16.4 15.3 89 1.1 SW 13 24 7 13 - - 0.0
25/03:30am 15.3 15.3 13.5 89 1.0 ENE 6 7 3 4 - - 0.0
25/03:00am 15.4 15.3 13.4 88 1.1 E 6 7 3 4 - - 0.0
25/02:30am 15.6 15.5 13.3 86 1.3 E 6 7 3 4 - - 0.0
25/02:00am 16.9 16.6 13.4 80 2.0 WSW 7 11 4 6 - - 0.0
25/01:30am 17.1 16.8 13.4 79 2.1 WSW 7 13 4 7 - - 0.0
25/01:00am 16.8 17.1 14.6 87 1.3 SSW 6 7 3 4 - - 0.0
25/12:30am 16.6 16.7 13.9 84 1.5 SSW 6 7 3 4 - - 0.0
25/12:00am 16.9 16.8 14.0 83 1.7 SSW 7 11 4 6 - - 0.0
 
Date/Time
WST
Temp
°C
App
Temp
°C
Dew
Point
Rel
Hum
%
Delta-T
°C
Wind Press
QNH
hPa
Press
MSL
hPa
Rain
since 9 am
mm
Dir
 
Spd
km/h
Gust
km/h
Spd
kts
Gust
kts
24/11:30pm 17.2 16.4 14.1 82 1.8 SW 11 17 6 9 - - 0.0
24/11:00pm 17.3 16.9 14.0 81 1.9 SW 9 15 5 8 - - 0.0
24/10:30pm 17.1 16.2 13.6 80 2.0 SSW 11 17 6 9 - - 0.0
24/10:00pm 16.5 15.8 13.2 81 1.8 SSW 9 15 5 8 - - 0.0
24/09:30pm 16.6 15.9 13.1 80 2.0 SSW 9 13 5 7 - - 0.0
24/09:00pm 16.9 15.7 12.8 77 2.3 SSW 11 19 6 10 - - 0.0
24/08:30pm 16.9 16.0 12.6 76 2.4 S 9 15 5 8 - - 0.0
24/08:00pm 17.3 15.7 12.8 75 2.5 SSW 13 19 7 10 - - 0.0
24/07:30pm 17.4 16.0 12.3 72 2.8 S 11 15 6 8 - - 0.0
24/07:00pm 17.8 16.1 12.3 70 3.0 SSW 13 17 7 9 - - 0.0
24/06:30pm 18.3 16.5 12.1 67 3.4 SSW 13 19 7 10 - - 0.0
24/06:00pm 19.4 17.2 12.2 63 4.0 SSW 15 24 8 13 - - 0.0
24/05:30pm 20.1 16.9 11.8 59 4.6 SW 20 26 11 14 - - 0.0
24/05:00pm 21.1 18.9 12.0 56 5.1 SSW 15 24 8 13 - - 0.0
24/04:30pm 21.6 19.1 12.2 55 5.3 SSW 17 24 9 13 - - 0.0
24/04:00pm 21.5 18.6 12.9 58 4.9 SW 20 28 11 15 - - 0.0
24/03:30pm 22.1 19.6 13.5 58 5.0 SW 19 28 10 15 - - 0.0
24/03:00pm 23.1 21.0 12.4 51 6.1 SW 15 24 8 13 - - 0.0
24/02:30pm 22.2 19.4 13.3 57 5.1 SW 20 28 11 15 - - 0.0
24/02:00pm 22.8 19.8 12.7 53 5.8 SW 20 28 11 15 - - 0.0
24/01:30pm 22.6 19.8 12.5 53 5.8 SW 19 24 10 13 - - 0.0
24/01:00pm 23.2 21.0 13.4 54 5.7 SW 17 24 9 13 - - 0.0
24/12:30pm 22.2 19.9 13.0 56 5.3 SW 17 26 9 14 - - 0.0
24/12:00pm 21.7 19.1 13.1 58 4.9 WSW 19 24 10 13 - - 0.0
24/11:30am 21.7 19.6 12.3 55 5.3 SW 15 22 8 12 - - 0.0
24/11:00am 21.3 18.7 11.9 55 5.3 WSW 17 20 9 11 - - 0.0
24/10:30am 22.2 21.6 11.6 51 5.9 WSW 6 11 3 6 - - 0.0
24/10:00am 22.5 21.5 10.3 46 6.7 E 6 15 3 8 - - 0.0
24/09:30am 21.2 19.7 10.4 50 5.9 SE 9 19 5 10 - - 0.0
24/09:00am 19.8 17.8 10.2 54 5.2 ESE 11 17 6 9 - - 0.0
24/08:30am 18.6 15.5 10.2 58 4.5 E 17 26 9 14 - - 0.0
24/08:00am 18.4 15.3 10.3 59 4.3 E 17 26 9 14 - - 0.0
24/07:30am 16.9 13.3 9.8 63 3.7 E 19 32 10 17 - - 0.0
24/07:00am 16.0 13.5 11.0 72 2.7 E 15 26 8 14 - - 0.0
24/06:30am 14.0 12.5 12.0 88 1.1 E 11 15 6 8 - - 0.0
24/06:00am 13.2 12.4 11.8 91 0.7 E 7 11 4 6 - - 0.0
24/05:30am 13.1 12.2 11.5 90 0.9 E 7 9 4 5 - - 0.0
24/05:00am 13.3 11.8 11.9 91 0.8 E 11 15 6 8 - - 0.0
24/04:30am 13.1 11.7 12.2 94 0.5 E 11 15 6 8 - - 0.0
24/04:00am 13.3 12.1 12.8 97 0.3 E 11 13 6 7 - - 0.0
24/03:30am 13.8 13.2 13.5 98 0.2 E 9 11 5 6 - - 0.0
24/03:00am 14.1 13.6 13.8 98 0.2 ESE 9 11 5 6 - - 0.0
24/02:30am 14.2 13.7 13.9 98 0.2 SE 9 11 5 6 - - 0.0
24/02:00am 14.4 14.3 13.8 96 0.3 SE 7 9 4 5 - - 0.0
24/01:30am 14.5 14.5 13.7 95 0.4 SE 6 7 3 4 - - 0.0
24/01:00am 14.7 14.7 13.6 93 0.6 SE 6 7 3 4 - - 0.0
24/12:30am 14.9 14.8 13.4 91 0.8 SE 6 9 3 5 - - 0.0
24/12:00am 15.1 14.8 13.3 89 1.0 SSE 7 9 4 5 - - 0.0
 
Date/Time
WST
Temp
°C
App
Temp
°C
Dew
Point
Rel
Hum
%
Delta-T
°C
Wind Press
QNH
hPa
Press
MSL
hPa
Rain
since 9 am
mm
Dir
 
Spd
km/h
Gust
km/h
Spd
kts
Gust
kts
23/11:30pm 15.6 15.3 13.3 86 1.3 SSE 7 9 4 5 - - 0.0
23/11:00pm 16.1 15.5 13.4 84 1.5 SSE 9 15 5 8 - - 0.0
23/10:30pm 16.6 15.7 13.7 83 1.6 S 11 17 6 9 - - 0.0
23/10:00pm 16.8 15.9 13.7 82 1.8 S 11 17 6 9 - - 0.0
23/09:30pm 16.8 15.8 13.3 80 2.0 S 11 15 6 8 - - 0.0
23/09:00pm 16.8 15.2 12.9 78 2.2 S 13 20 7 11 - - 0.0
23/08:30pm 16.7 15.5 12.7 77 2.2 S 11 17 6 9 - - 0.0
23/08:00pm 16.7 15.3 12.3 75 2.4 S 11 19 6 10 - - 0.0
23/07:30pm 16.6 15.2 12.2 75 2.4 S 11 19 6 10 - - 0.0
23/07:00pm 16.9 15.1 12.0 73 2.7 S 13 24 7 13 - - 0.0
23/06:30pm 17.6 14.7 12.3 71 2.9 SSW 19 26 10 14 - - 0.0
23/06:00pm 18.4 16.0 12.6 69 3.2 SSW 17 24 9 13 - - 0.0
23/05:30pm 19.1 16.7 12.8 67 3.5 SSW 17 28 9 15 - - 0.0
23/05:00pm 20.0 17.4 13.2 65 3.9 SW 19 28 10 15 - - 0.0
23/04:30pm 20.9 18.7 14.3 66 3.8 SW 19 28 10 15 - - 0.0
23/04:00pm 20.6 18.0 13.3 63 4.2 SW 19 26 10 14 - - 0.0
23/03:30pm 21.0 18.5 14.2 65 4.0 SSW 20 30 11 16 - - 0.0
23/03:00pm 21.3 19.0 14.2 64 4.1 SSW 19 28 10 15 - - 0.0
23/02:30pm 21.6 19.4 15.0 66 3.9 SW 20 30 11 16 - - 0.0
23/02:00pm 21.4 18.9 14.1 63 4.3 SW 20 28 11 15 - - 0.0
23/01:30pm 22.8 21.1 14.6 60 4.8 SW 17 24 9 13 - - 0.0
23/01:00pm 21.8 19.2 13.7 60 4.7 WSW 20 26 11 14 - - 0.0
23/12:30pm 22.2 19.9 14.1 60 4.7 WSW 19 26 10 14 - - 0.0
23/12:00pm 21.6 19.5 14.7 65 4.1 WSW 19 28 10 15 - - 0.0
23/11:30am 20.4 17.9 13.6 65 3.9 WSW 19 28 10 15 - - 0.0
23/11:00am 21.5 19.2 14.2 63 4.3 WSW 19 26 10 14 - - 0.0
23/10:30am 20.8 18.9 14.2 66 3.8 WSW 17 24 9 13 - - 0.0
23/10:00am 18.7 17.5 15.0 79 2.2 WSW 15 20 8 11 - - 0.0
23/09:30am 21.0 18.8 14.4 66 3.9 WNW 19 28 10 15 - - 0.0
23/09:00am 20.8 18.8 14.0 65 3.9 W 17 24 9 13 - - 4.6
23/08:30am 20.5 18.5 13.9 66 3.8 W 17 24 9 13 - - 4.6
23/08:00am 19.5 17.6 14.3 72 3.0 W 17 24 9 13 - - 4.6
23/07:30am 19.0 16.6 13.8 72 3.0 W 19 26 10 14 - - 4.6
23/07:00am 18.0 15.1 14.1 78 2.2 W 22 32 12 17 - - 4.6
23/06:30am 17.9 15.8 14.6 81 1.9 W 19 24 10 13 - - 4.6
23/06:00am 17.6 16.0 14.9 84 1.6 WNW 17 22 9 12 - - 4.6
23/05:30am 16.9 16.0 14.9 88 1.2 W 13 22 7 12 - - 4.4
23/05:00am 17.0 15.9 15.2 89 1.0 W 15 20 8 11 - - 4.4
23/04:30am 16.6 14.9 14.6 88 1.1 WNW 17 22 9 12 - - 4.4
23/04:00am 16.6 14.7 15.3 92 0.8 WNW 19 24 10 13 - - 4.4
23/03:30am 16.0 14.2 14.4 90 0.9 W 17 26 9 14 - - 4.4
23/03:00am 17.6 14.7 14.1 80 2.0 WNW 22 33 12 18 - - 3.0
23/02:30am 17.4 15.2 14.9 85 1.5 WNW 20 32 11 17 - - 3.0
23/02:00am 17.3 15.5 16.0 92 0.8 WNW 20 30 11 16 - - 3.0
23/01:30am 16.0 15.6 15.2 95 0.5 N 11 19 6 10 - - 3.0
23/01:00am 15.2 14.6 13.6 90 0.9 N 9 11 5 6 - - 3.0
23/12:30am 15.7 15.2 13.9 89 1.0 N 9 13 5 7 - - 3.0
23/12:00am 16.8 15.9 13.7 82 1.8 NNW 11 20 6 11 - - 3.0
 
Date/Time
WST
Temp
°C
App
Temp
°C
Dew
Point
Rel
Hum
%
Delta-T
°C
Wind Press
QNH
hPa
Press
MSL
hPa
Rain
since 9 am
mm
Dir
 
Spd
km/h
Gust
km/h
Spd
kts
Gust
kts
22/11:30pm 16.8 15.1 13.7 82 1.8 NNW 15 22 8 12 - - 2.8
22/11:00pm 16.2 15.0 14.0 87 1.2 NW 13 19 7 10 - - 2.8
22/10:30pm 15.6 14.7 13.8 89 1.0 NW 11 13 6 7 - - 2.8
22/10:00pm 15.9 15.6 14.3 90 0.9 NNW 9 13 5 7 - - 2.8
22/09:30pm 16.9 15.4 15.2 90 1.0 N 17 26 9 14 - - 1.4
22/09:00pm 19.0 15.8 14.3 74 2.7 NNW 24 33 13 18 - - 0.0
22/08:30pm 18.7 15.2 14.6 77 2.4 NW 26 37 14 20 - - 0.0
22/08:00pm 18.5 15.0 14.4 77 2.4 NW 26 35 14 19 - - 0.0

Other Formats:

Comma delimited format used in spreadsheet applications
http://www.bom.gov.au/fwo/IDW60801/IDW60801.94614.axf

JavaScript Object Notation format (JSON) in row-major order
http://www.bom.gov.au/fwo/IDW60801/IDW60801.94614.json